Accueil
METAR-TAF:

METAR-TAF

Aéroports :

Aéroport international des Seychelles

Victoria, Mahé, Seychelles

latitude: 04-40S, longitude: 055-31E, altitude: 3 m

Observation

Le bulletin a été fait il y a 53 minutes, à 11:00 UTC
Vent 6 kt de nord
Température 32°C
Humidité 67%
Pression 1008 hPa
Visibilité 10 km ou plus
Nuages épars à une hauteur de 2600 ft

METAR: FSIA 231100Z 36006KT 9999 SCT026 32/25 Q1008 NOSIG

Heure: 15:53 (11:53 UTC)

Prévision

Le bulletin a été fait il y a 53 minutes, à 11:00 UTC
Prévision valable du 23 à 12 UTC au 24 à 12 UTC
Vent 10 kt de nord/nord-ouest
Visibilité 10 km ou plus
Nuages épars à une hauteur de 2600 ft

TAF: FSIA 231100Z 2312/2412 34010KT 9999 SCT026

Observations et prévisions météorologiques de plus de 4000 aéroports (messages METAR et TAF).

Les stations disponibles sont représentées par des disques jaunes et rouges sur la carte.

Passer la souris dessus pour voir le nom de la station.

Cliquer dessus pour voir les observations et prévisions météorologiques.

Pour changer de carte: cliquez sur les boutons verts avec une croix noire pour zoomer, sur le bouton vert avec un tiret pour effectuer un zoom arrière, ou sur les flèches vertes pour les cartes adjacentes.


METAR-TAF: